El Paso International Airport
KELP : rendu visible

Aérodrome :











RETROUVEZ-NOUS SUR...

 
LOGIN :

S'inscrire | Disclaimer

   EN    FR    IT 

 









Légende :    VFR   VFR Marginal   IFR   IFR Intensif   IFR Très Intensif
Visi : 
Plafond : 
>= 8 km
>= 3000ft
5 à 8 km
1000 à 3000 ft
1500m à 5 km
500 à 1000 ft
800 à 1500m
200 à 500 ft
< 800m
< 200 ft
Symboles :   Orages  Brouillard  Fortes neiges  Fortes précipitations  Vent > 20 kt






- Altitude de l'aérodrome : 3959 ft
- Code IATA : ELP


KELP - El Paso International

DERNIER METAR :
  • 210151Z 08007KT 10SM SCT048 BKN200 BKN250 12/M03 A3028 RMK AO2 SLP229 T01221028

METARs EXPIRÉS :
  • 210051Z 07006KT 10SM BKN045 BKN200 BKN250 13/M02 A3027 RMK AO2 SLP224 T01281022
  • 202351Z 05004KT 10SM BKN045 BKN220 BKN250 14/M02 A3027 RMK AO2 SLP225 T01391022 10144 20106 55008

TAF KELP
Valide du 21 à 00h jusqu'au 22 à 00h UTC


202327Z 2100/2124 07008KT P6SM SCT050 BKN200
FM211600 16008KT 6SM -SHRA OVC040
FM212200 24008KT P6SM OVC050



MET'MAP, la Météo Aéronautique d'un coup d'oeil ! - Copyright ORBIFLY Décembre 2007 - Disclaimer

ORBIFLY MET'MAP TEAM :

Programmation & Développement : Alexandra Zaïnal
Sur une idée originale de : Baudouin d'Aumeries
Assistance à la programmation : Marc-Olivier Méhu
Soutien technique & logistique : Manuel Goepfert

Contact : metmap@orbifly.com




SOURCES & CREDITS :

   NOAA       Earth
Advisory